Time;durP1;ratioP1;P1;durP2;ratioP2;P2;SDS_P1;SDS_P2;PMS_P1;PMS_P2;Temp;Humidity;BMP_temperature;BMP_pressure;BME280_temperature;BME280_humidity;BME280_pressure;Samples;Min_cycle;Max_cycle;Signal;HPM_P1;HPM_P2
2022/10/05 00:00:13;;;;;;;27.73;8.95;;;;;;;11.37;100.00;99460.13;4196345;34;20114;-75
2022/10/05 00:03:09;;;;;;;22.05;9.98;;;;;;;11.47;100.00;99484.56;4175714;34;20074;-70
2022/10/05 00:05:37;;;;;;;18.58;8.70;;;;;;;11.60;100.00;99481.56;4168730;34;20048;-69
2022/10/05 00:08:16;;;;;;;19.83;8.75;;;;;;;11.76;100.00;99489.91;4188738;34;20051;-69
2022/10/05 00:10:44;;;;;;;25.42;10.70;;;;;;;11.71;100.00;99497.91;4196903;34;20044;-69
2022/10/05 00:13:13;;;;;;;27.92;9.43;;;;;;;11.40;100.00;99462.34;4195901;34;20083;-69
2022/10/05 00:15:40;;;;;;;17.95;9.25;;;;;;;11.61;100.00;99483.19;4193941;34;20047;-72
2022/10/05 00:18:16;;;;;;;21.33;9.43;;;;;;;11.53;100.00;99475.50;4195713;34;20508;-69
2022/10/05 00:20:44;;;;;;;18.30;9.40;;;;;;;11.34;100.00;99404.00;4214522;33;20047;-69
2022/10/05 00:23:18;;;;;;;20.55;8.90;;;;;;;11.69;100.00;99438.00;4238525;33;20074;-69
2022/10/05 00:25:45;;;;;;;16.33;9.05;;;;;;;11.59;100.00;99469.13;4235449;33;20038;-70
2022/10/05 00:28:25;;;;;;;24.42;10.27;;;;;;;11.59;100.00;99473.72;4237401;33;20092;-70
2022/10/05 00:30:56;;;;;;;22.05;8.57;;;;;;;11.02;100.00;99434.22;4234475;33;20047;-71
2022/10/05 00:33:23;;;;;;;21.62;9.05;;;;;;;11.20;100.00;99463.66;4227698;33;20361;-75
2022/10/05 00:35:50;;;;;;;20.42;9.20;;;;;;;11.26;100.00;99454.59;4237369;33;20072;-70
2022/10/05 00:38:16;;;;;;;19.30;7.87;;;;;;;11.25;100.00;99452.13;4241591;33;20079;-69
2022/10/05 00:41:17;;;;;;;20.08;8.45;;;;;;;11.26;100.00;99449.19;4254690;33;20045;-69
2022/10/05 00:44:04;;;;;;;27.65;9.60;;;;;;;11.03;100.00;99446.63;4290064;33;20049;-70
2022/10/05 00:46:47;;;;;;;19.12;7.72;;;;;;;10.90;100.00;99420.81;4285322;33;20085;-72
2022/10/05 00:49:59;;;;;;;16.10;8.05;;;;;;;11.10;100.00;99449.97;4280401;33;20358;-69
2022/10/05 00:52:35;;;;;;;19.70;8.43;;;;;;;11.04;100.00;99450.94;4280919;33;20079;-69
2022/10/05 00:55:35;;;;;;;20.30;9.25;;;;;;;10.88;100.00;99422.91;4284301;33;20076;-69
2022/10/05 00:58:11;;;;;;;21.45;7.20;;;;;;;11.31;100.00;99461.13;4290691;33;20040;-71
2022/10/05 01:01:10;;;;;;;18.02;7.40;;;;;;;10.88;100.00;99422.91;4287272;33;20382;-70
2022/10/05 01:03:47;;;;;;;23.48;9.15;;;;;;;11.06;100.00;99424.59;4282612;33;20071;-70
2022/10/05 01:06:21;;;;;;;14.40;8.35;;;;;;;11.21;100.00;99441.00;4291991;33;20037;-70
2022/10/05 01:09:16;;;;;;;14.07;8.45;;;;;;;10.93;100.00;99411.41;4281515;33;20198;-69
2022/10/05 01:12:08;;;;;;;15.75;7.32;;;;;;;11.05;100.00;99447.19;4293935;33;20038;-69
2022/10/05 01:15:11;;;;;;;15.07;8.40;;;;;;;11.04;100.00;99448.25;4293775;33;20049;-69
2022/10/05 01:17:59;;;;;;;17.50;7.30;;;;;;;11.06;100.00;99446.97;4295391;33;20094;-69
2022/10/05 01:20:44;;;;;;;18.58;8.13;;;;;;;11.08;100.00;99433.25;4286750;33;20040;-70
2022/10/05 01:23:35;;;;;;;31.02;8.10;;;;;;;10.82;100.00;99435.47;4309544;33;20032;-70
2022/10/05 01:26:23;;;;;;;18.12;7.70;;;;;;;11.05;100.00;99439.13;4308135;33;20098;-73
2022/10/05 01:29:17;;;;;;;12.98;7.47;;;;;;;11.12;100.00;99442.50;4294558;33;20033;-69
2022/10/05 01:31:51;;;;;;;21.55;7.03;;;;;;;11.15;100.00;99450.06;4282686;33;20055;-70
2022/10/05 01:34:34;;;;;;;26.48;9.63;;;;;;;10.74;100.00;99414.31;4280651;33;20033;-69
2022/10/05 01:37:22;;;;;;;15.52;8.02;;;;;;;11.03;100.00;99449.31;4279594;33;20069;-70
2022/10/05 01:40:10;;;;;;;20.42;8.20;;;;;;;11.18;100.00;99449.56;4270040;33;20038;-71
2022/10/05 01:42:58;;;;;;;15.30;7.65;;;;;;;11.38;100.00;99475.25;4277572;33;20042;-74
2022/10/05 01:45:30;;;;;;;19.05;7.93;;;;;;;11.25;100.00;99479.91;4264131;33;20513;-69
2022/10/05 01:48:24;;;;;;;17.75;7.78;;;;;;;11.06;100.00;99476.59;4264828;33;20041;-70
2022/10/05 01:51:16;;;;;;;23.25;7.93;;;;;;;10.71;100.00;99430.97;4232664;33;20037;-69
2022/10/05 01:54:14;;;;;;;19.10;8.48;;;;;;;11.18;100.00;99465.75;4261335;33;20042;-70
2022/10/05 01:57:05;;;;;;;18.77;8.30;;;;;;;11.31;100.00;99471.91;4249941;33;20059;-70
2022/10/05 02:00:00;;;;;;;19.17;7.97;;;;;;;11.21;100.00;99473.34;4251433;33;20075;-69
2022/10/05 02:02:30;;;;;;;17.75;7.32;;;;;;;11.25;100.00;99479.09;4237345;33;20089;-72
2022/10/05 02:05:22;;;;;;;16.05;7.80;;;;;;;11.21;100.00;99473.34;4236162;33;20063;-70
2022/10/05 02:07:56;;;;;;;16.08;6.82;;;;;;;11.04;100.00;99461.72;4234456;33;20428;-73
2022/10/05 02:10:31;;;;;;;20.42;8.18;;;;;;;10.95;100.00;99460.50;4251106;33;20053;-69
2022/10/05 02:13:12;;;;;;;14.90;7.28;;;;;;;11.07;100.00;99450.47;4251587;33;20023;-70
2022/10/05 02:15:46;;;;;;;17.95;8.15;;;;;;;10.90;100.00;99426.19;4248908;33;20097;-70
2022/10/05 02:18:18;;;;;;;16.75;7.47;;;;;;;10.70;100.00;99434.72;4245188;33;20046;-70
2022/10/05 02:20:48;;;;;;;16.10;7.50;;;;;;;10.68;100.00;99426.88;4241765;33;20034;-70
2022/10/05 02:23:31;;;;;;;23.50;8.98;;;;;;;10.83;100.00;99429.06;4248792;33;20050;-70
2022/10/05 02:26:00;;;;;;;18.80;8.30;;;;;;;10.30;100.00;99400.53;4251101;33;20181;-69
2022/10/05 02:29:05;;;;;;;16.00;8.02;;;;;;;10.82;100.00;99430.09;4236004;33;20084;-69
2022/10/05 02:31:54;;;;;;;14.63;9.60;;;;;;;10.47;100.00;99392.56;4207032;34;20061;-69
2022/10/05 02:34:25;;;;;;;13.95;6.62;;;;;;;10.74;100.00;99435.88;4208108;34;20078;-73
2022/10/05 02:37:19;;;;;;;11.40;6.60;;;;;;;10.59;100.00;99432.88;4207862;34;20055;-69
2022/10/05 02:40:13;;;;;;;19.77;6.93;;;;;;;10.54;100.00;99414.75;4211096;34;20031;-69
2022/10/05 02:42:55;;;;;;;16.50;8.02;;;;;;;10.22;100.00;99379.38;4210037;34;20069;-69
2022/10/05 02:45:30;;;;;;;;;;;;;;;10.59;100.00;99441.75;4211182;34;20064;-75
2022/10/05 02:48:05;;;;;;;14.35;7.85;;;;;;;10.27;100.00;99371.41;4230035;33;19971;-69
2022/10/05 02:50:36;;;;;;;23.83;9.55;;;;;;;10.58;100.00;99398.91;4239916;33;20187;-70
2022/10/05 02:53:18;;;;;;;15.80;7.60;;;;;;;10.64;100.00;99430.28;4226840;33;20174;-71
2022/10/05 02:56:07;;;;;;;20.33;8.40;;;;;;;10.55;100.00;99427.16;4225714;33;20043;-69
2022/10/05 02:59:07;;;;;;;14.35;7.12;;;;;;;10.73;100.00;99402.72;4226205;33;20042;-75
2022/10/05 03:01:40;;;;;;;11.85;6.80;;;;;;;10.51;100.00;99402.59;4239024;33;20064;-69
2022/10/05 03:04:20;;;;;;;16.52;7.55;;;;;;;11.02;100.00;99436.91;4239456;33;20034;-70
2022/10/05 03:06:57;;;;;;;19.52;7.30;;;;;;;10.59;100.00;99387.91;4295341;33;20048;-69
2022/10/05 03:09:30;;;;;;;14.63;6.57;;;;;;;10.86;100.00;99423.16;4304415;33;20052;-69
2022/10/05 03:12:11;;;;;;;17.83;6.65;;;;;;;10.47;100.00;99377.19;4317230;33;20044;-74
2022/10/05 03:14:52;;;;;;;11.12;6.18;;;;;;;10.50;100.00;99371.34;4320268;33;20098;-69
2022/10/05 03:17:26;;;;;;;16.25;8.07;;;;;;;10.75;100.00;99428.59;4295672;33;20206;-74
2022/10/05 03:20:06;;;;;;;18.55;6.55;;;;;;;10.92;100.00;99436.72;4290765;33;20127;-68
2022/10/05 03:22:36;;;;;;;15.88;7.05;;;;;;;10.80;100.00;99402.59;4296771;33;20033;-68
2022/10/05 03:25:18;;;;;;;15.30;5.65;;;;;;;10.90;100.00;99386.59;4295861;33;20045;-73
2022/10/05 03:27:58;;;;;;;16.90;6.85;;;;;;;10.86;100.00;99384.63;4297200;33;20041;-70
2022/10/05 03:30:31;;;;;;;9.57;5.97;;;;;;;11.17;100.00;99426.41;4295188;33;20037;-69
2022/10/05 03:33:31;;;;;;;11.23;5.68;;;;;;;10.61;100.00;99358.06;4282885;33;20411;-69
2022/10/05 03:36:26;;;;;;;15.30;6.82;;;;;;;11.12;100.00;99414.69;4244022;33;20188;-69
2022/10/05 03:39:11;;;;;;;16.50;6.62;;;;;;;10.69;100.00;99357.66;4281383;33;20067;-70
2022/10/05 03:41:50;;;;;;;9.95;5.43;;;;;;;10.66;100.00;99352.78;4269613;33;20068;-71
2022/10/05 03:44:33;;;;;;;10.02;5.62;;;;;;;10.98;100.00;99387.28;4267011;33;20073;-70
2022/10/05 03:47:13;;;;;;;14.65;5.55;;;;;;;10.95;100.00;99393.16;4281232;33;20067;-70
2022/10/05 03:50:17;;;;;;;9.27;6.07;;;;;;;10.87;100.00;99360.13;4279151;33;20279;-69
2022/10/05 03:53:00;;;;;;;13.77;6.22;;;;;;;11.06;100.00;99405.72;4294662;33;20086;-70
2022/10/05 03:55:44;;;;;;;14.52;5.87;;;;;;;11.31;100.00;99413.41;4296248;33;20060;-69
2022/10/05 03:58:17;;;;;;;11.50;5.65;;;;;;;10.83;100.00;99374.34;4295045;33;20074;-75
2022/10/05 04:00:50;;;;;;;14.13;4.87;;;;;;;11.00;100.00;99395.91;4295152;33;20041;-69
2022/10/05 04:03:37;;;;;;;15.57;6.78;;;;;;;10.69;100.00;99368.44;4282548;33;20041;-69
2022/10/05 04:06:21;;;;;;;8.32;5.43;;;;;;;11.23;100.00;99390.38;4281672;33;20873;-69
2022/10/05 04:09:00;;;;;;;12.73;6.03;;;;;;;10.86;100.00;99350.41;4284740;33;20037;-69
2022/10/05 04:11:32;;;;;;;11.50;5.05;;;;;;;10.71;100.00;99366.34;4293816;33;20033;-69
2022/10/05 04:14:20;;;;;;;10.80;5.72;;;;;;;11.26;100.00;99406.06;4296069;33;20455;-69
2022/10/05 04:17:04;;;;;;;12.18;5.53;;;;;;;11.02;100.00;99405.38;4301525;33;20398;-74
2022/10/05 04:19:58;;;;;;;17.05;5.90;;;;;;;10.67;100.00;99375.94;4310362;33;20083;-69
2022/10/05 04:22:42;;;;;;;11.75;5.90;;;;;;;11.26;100.00;99406.06;4309764;33;20118;-69
2022/10/05 04:25:24;;;;;;;15.48;6.43;;;;;;;11.33;100.00;99396.97;4302298;33;20063;-69
2022/10/05 04:28:03;;;;;;;10.30;4.85;;;;;;;10.92;100.00;99389.03;4307367;33;20451;-69
2022/10/05 04:30:33;;;;;;;20.75;7.30;;;;;;;11.14;100.00;99381.06;4299898;33;20048;-69
2022/10/05 04:33:00;;;;;;;14.65;5.62;;;;;;;11.36;100.00;99401.88;4310178;33;20083;-68
2022/10/05 04:35:48;;;;;;;12.15;6.10;;;;;;;11.10;100.00;99401.47;4308695;33;20070;-73
2022/10/05 04:38:34;;;;;;;12.32;5.18;;;;;;;11.03;100.00;99392.75;4295762;33;20045;-70
2022/10/05 04:41:39;;;;;;;11.55;4.95;;;;;;;11.03;100.00;99388.16;4292711;33;20080;-72
2022/10/05 04:44:34;;;;;;;12.93;5.55;;;;;;;11.37;100.00;99384.66;4295561;33;20033;-69
2022/10/05 04:47:09;;;;;;;9.23;5.82;;;;;;;11.29;100.00;99393.16;4294732;33;20026;-69
2022/10/05 04:49:48;;;;;;;12.93;5.60;;;;;;;11.39;100.00;99414.87;4293194;33;20033;-69
2022/10/05 04:52:33;;;;;;;10.60;5.97;;;;;;;11.61;100.00;99415.75;4308629;33;20199;-69
2022/10/05 04:55:07;;;;;;;11.27;5.43;;;;;;;11.23;100.00;99411.12;4310029;33;20415;-69
2022/10/05 04:57:56;;;;;;;11.55;4.87;;;;;;;11.29;100.00;99414.72;4308571;33;20030;-69
2022/10/05 05:00:49;;;;;;;12.70;5.10;;;;;;;11.15;100.00;99371.91;4292586;33;20128;-70
2022/10/05 05:03:25;;;;;;;11.18;6.10;;;;;;;11.05;100.00;99387.91;4293671;33;20044;-69
2022/10/05 05:06:03;;;;;;;13.20;4.85;;;;;;;11.22;100.00;99421.09;4293934;33;20049;-70
2022/10/05 05:09:07;;;;;;;14.85;4.72;;;;;;;11.40;100.00;99411.12;4293060;33;20069;-72
2022/10/05 05:11:39;;;;;;;9.10;5.07;;;;;;;11.20;100.00;99422.37;4268665;33;20112;-69
2022/10/05 05:14:54;;;;;;;12.90;5.18;;;;;;;11.01;100.00;99413.69;4276624;33;20119;-69
2022/10/05 05:17:46;;;;;;;8.35;4.62;;;;;;;11.34;100.00;99418.28;4259696;33;20472;-71
2022/10/05 05:20:34;;;;;;;9.55;4.50;;;;;;;11.10;100.00;99406.84;4265367;33;20061;-69
2022/10/05 05:23:07;;;;;;;14.77;5.40;;;;;;;11.39;100.00;99415.72;4260851;33;20093;-69
2022/10/05 05:25:51;;;;;;;15.45;5.40;;;;;;;11.30;100.00;99416.38;4250028;33;20071;-70
2022/10/05 05:28:23;;;;;;;18.87;5.70;;;;;;;10.91;100.00;99382.00;4223503;33;20451;-75
2022/10/05 05:30:59;;;;;;;13.52;5.75;;;;;;;11.20;100.00;99415.13;4226902;33;20030;-70
2022/10/05 05:33:48;;;;;;;14.68;6.15;;;;;;;11.12;100.00;99414.69;4252565;33;20049;-69
2022/10/05 05:36:26;;;;;;;13.18;6.03;;;;;;;11.36;100.00;99415.34;4251182;33;20042;-69
2022/10/05 05:39:11;;;;;;;5.60;4.47;;;;;;;11.47;100.00;99398.28;4263545;33;20041;-69
2022/10/05 05:41:48;;;;;;;13.75;4.65;;;;;;;11.42;100.00;99414.37;4266005;33;20429;-71
2022/10/05 05:44:44;;;;;;;12.82;5.05;;;;;;;11.18;100.00;99371.41;4299314;33;20379;-68
2022/10/05 05:47:19;;;;;;;11.43;4.62;;;;;;;10.97;100.00;99358.69;4295202;33;20098;-69
2022/10/05 05:50:23;;;;;;;10.68;4.70;;;;;;;11.19;100.00;99383.03;4294461;33;20103;-69
2022/10/05 05:52:56;;;;;;;18.48;5.03;;;;;;;10.86;100.00;99380.03;4292764;33;20074;-71
2022/10/05 05:55:34;;;;;;;9.80;4.40;;;;;;;11.09;100.00;99372.91;4292623;33;20057;-70
2022/10/05 05:58:23;;;;;;;12.45;4.05;;;;;;;11.34;100.00;99393.22;4276966;33;20379;-72
2022/10/05 06:01:04;;;;;;;15.55;4.97;;;;;;;11.54;100.00;99404.34;4276564;33;20053;-71
2022/10/05 06:03:49;;;;;;;7.85;4.30;;;;;;;11.66;100.00;99403.41;4278497;33;20752;-70
2022/10/05 06:06:16;;;;;;;8.18;4.72;;;;;;;11.73;100.00;99407.56;4220491;33;20046;-71
2022/10/05 06:08:50;;;;;;;17.08;5.72;;;;;;;11.78;100.00;99390.66;4221926;33;20469;-71
2022/10/05 06:11:29;;;;;;;9.80;4.62;;;;;;;12.38;100.00;99415.19;4222308;33;20345;-69
2022/10/05 06:14:23;;;;;;;9.13;4.47;;;;;;;12.10;100.00;99390.81;4222964;33;20072;-69
2022/10/05 06:16:58;;;;;;;13.65;4.50;;;;;;;12.56;100.00;99377.03;4222148;33;20039;-69
2022/10/05 06:19:27;;;;;;;8.23;4.55;;;;;;;12.53;100.00;99412.66;4264142;33;20042;-69
2022/10/05 06:22:21;;;;;;;11.50;4.57;;;;;;;12.92;100.00;99412.50;4266055;33;20401;-68
2022/10/05 06:24:51;;;;;;;18.90;4.62;;;;;;;12.81;100.00;99391.87;4259927;33;20173;-74
2022/10/05 06:27:23;;;;;;;7.62;4.70;;;;;;;12.37;100.00;99403.56;4251672;33;20373;-69
2022/10/05 06:29:57;;;;;;;20.75;5.70;;;;;;;12.37;100.00;99364.97;4239370;33;20439;-69
2022/10/05 06:32:32;;;;;;;8.40;4.40;;;;;;;12.49;100.00;99381.81;4239454;33;20064;-69
2022/10/05 06:35:13;;;;;;;11.40;4.93;;;;;;;12.71;100.00;99417.72;4259191;33;20049;-68
2022/10/05 06:38:17;;;;;;;7.93;4.43;;;;;;;12.57;100.00;99419.19;4251628;33;20064;-69
2022/10/05 06:41:07;;;;;;;11.68;4.80;;;;;;;12.40;100.00;99410.34;4251266;33;20033;-69
2022/10/05 06:44:03;;;;;;;17.10;5.07;;;;;;;12.60;100.00;99415.97;4261076;33;20045;-74
2022/10/05 06:46:38;;;;;;;7.12;4.60;;;;;;;12.59;100.00;99406.25;4273028;33;20038;-69
2022/10/05 06:49:24;;;;;;;10.95;4.40;;;;;;;12.51;100.00;99352.69;4286586;33;20048;-71
2022/10/05 06:52:11;;;;;;;11.57;4.72;;;;;;;12.92;100.00;99409.81;4293660;33;20033;-69
2022/10/05 06:55:07;;;;;;;12.98;5.10;;;;;;;12.78;100.00;99403.19;4280532;33;20509;-70
2022/10/05 06:58:27;;;;;;;20.10;5.10;;;;;;;12.90;100.00;99379.53;4271807;33;20431;-70
2022/10/05 07:01:00;;;;;;;13.27;4.75;;;;;;;13.23;100.00;99420.91;4293104;33;20053;-67
2022/10/05 07:03:56;;;;;;;10.52;4.60;;;;;;;13.40;100.00;99427.03;4306681;33;20079;-69
2022/10/05 07:06:37;;;;;;;13.32;4.72;;;;;;;13.15;100.00;99424.09;4308250;33;20411;-68
2022/10/05 07:09:19;;;;;;;10.98;4.43;;;;;;;13.34;100.00;99438.88;4307138;33;20095;-69
2022/10/05 07:12:02;;;;;;;14.98;4.57;;;;;;;12.94;100.00;99401.44;4307963;33;20071;-68
2022/10/05 07:15:14;;;;;;;12.37;4.22;;;;;;;13.20;100.00;99400.59;4305453;33;20461;-69
2022/10/05 07:18:04;;;;;;;15.27;5.53;;;;;;;13.46;100.00;99440.59;4306132;33;20074;-70
2022/10/05 07:21:12;;;;;;;16.42;5.18;;;;;;;13.23;100.00;99431.72;4293722;33;20041;-69
2022/10/05 07:24:00;;;;;;;12.45;5.10;;;;;;;13.42;100.00;99430.28;4294340;33;20202;-70
2022/10/05 07:26:44;;;;;;;8.35;4.20;;;;;;;13.93;100.00;99442.56;4302154;33;20107;-69
2022/10/05 07:29:52;;;;;;;13.30;4.55;;;;;;;13.20;100.00;99392.50;4296108;33;20078;-69
2022/10/05 07:32:33;;;;;;;8.75;4.87;;;;;;;13.53;100.00;99392.50;4281869;33;20033;-69
2022/10/05 07:37:53;;;;;;;15.73;5.32;;;;;;;13.48;100.00;99384.34;4293303;33;20056;-68
2022/10/05 07:38:06;;;;;;;17.20;4.40;;;;;;;13.70;100.00;99414.78;4283188;33;20081;-68
2022/10/05 07:41:07;;;;;;;11.90;4.15;;;;;;;13.42;100.00;99373.50;4284201;33;20433;-69
2022/10/05 07:44:05;;;;;;;14.30;4.45;;;;;;;13.67;100.00;99415.31;4284964;33;20071;-70
2022/10/05 07:46:42;;;;;;;11.32;4.80;;;;;;;13.98;100.00;99410.09;4273694;33;20056;-74
2022/10/05 07:49:30;;;;;;;9.00;5.07;;;;;;;13.60;100.00;99412.84;4275089;33;20045;-68
2022/10/05 07:52:04;;;;;;;12.35;4.95;;;;;;;13.80;100.00;99404.03;4281562;33;20045;-68
2022/10/05 07:54:55;;;;;;;8.93;4.10;;;;;;;13.68;100.00;99408.03;4280466;33;20067;-68
2022/10/05 07:57:38;;;;;;;16.62;4.10;;;;;;;13.87;100.00;99397.59;4280534;33;20092;-69
2022/10/05 08:00:14;;;;;;;13.43;4.30;;;;;;;14.05;100.00;99394.41;4286151;33;20045;-69
2022/10/05 08:02:59;;;;;;;15.80;4.22;;;;;;;14.15;100.00;99361.97;4290765;33;20051;-69
2022/10/05 08:05:32;;;;;;;13.52;4.85;;;;;;;14.22;100.00;99393.44;4309650;33;20377;-75
2022/10/05 08:08:20;;;;;;;12.93;4.20;;;;;;;14.17;100.00;99359.81;4299495;33;20052;-69
2022/10/05 08:11:08;;;;;;;10.82;3.87;;;;;;;14.54;100.00;99391.34;4306136;33;20058;-69
2022/10/05 08:13:54;;;;;;;9.35;4.60;;;;;;;14.57;100.00;99383.75;4310826;33;20164;-69
2022/10/05 08:16:25;;;;;;;10.60;3.83;;;;;;;14.28;100.00;99386.91;4301642;33;20037;-68
2022/10/05 08:19:16;;;;;;;13.13;4.22;;;;;;;14.59;100.00;99381.63;4310502;33;20107;-69
2022/10/05 08:21:49;;;;;;;9.60;3.72;;;;;;;14.62;100.00;99383.81;4309651;33;20105;-74
2022/10/05 08:24:21;;;;;;;11.48;4.03;;;;;;;15.13;100.00;99386.59;4310663;33;20086;-68
2022/10/05 08:27:05;;;;;;;20.58;3.55;;;;;;;14.61;100.00;99379.47;4309736;33;20021;-69
2022/10/05 08:29:34;;;;;;;6.50;4.15;;;;;;;15.14;100.00;99344.00;4302424;33;20433;-71
2022/10/05 08:32:05;;;;;;;14.85;4.25;;;;;;;15.09;100.00;99371.94;4296146;33;20045;-69
2022/10/05 08:35:20;;;;;;;14.57;4.18;;;;;;;15.62;100.00;99377.88;4295846;33;20098;-68
2022/10/05 08:37:47;;;;;;;13.98;3.78;;;;;;;15.39;100.00;99367.59;4274998;33;20045;-69
2022/10/05 08:40:32;;;;;;;4.75;3.80;;;;;;;15.74;100.00;99339.56;4279934;33;20042;-69
2022/10/05 08:43:08;;;;;;;10.65;3.42;;;;;;;15.86;100.00;99352.87;4281301;33;20079;-69
2022/10/05 08:46:07;;;;;;;10.60;3.60;;;;;;;15.66;100.00;99344.75;4279835;33;20041;-69
2022/10/05 08:48:47;;;;;;;7.78;3.70;;;;;;;15.71;100.00;99386.25;4279701;33;20041;-69
2022/10/05 08:51:32;;;;;;;7.78;3.55;;;;;;;15.58;100.00;99379.50;4281169;33;20037;-69
2022/10/05 08:54:12;;;;;;;8.98;3.50;;;;;;;15.60;100.00;99385.47;4281471;33;20079;-68
2022/10/05 08:56:44;;;;;;;7.80;4.05;;;;;;;15.97;100.00;99381.59;4279830;33;20049;-69
2022/10/05 08:59:44;;;;;;;6.72;3.60;;;;;;;15.90;100.00;99372.94;4277294;33;20073;-73
2022/10/05 09:02:13;;;;;;;9.25;4.03;;;;;;;15.66;100.00;99377.31;4274248;33;20055;-69
2022/10/05 09:05:08;;;;;;;15.10;4.70;;;;;;;15.64;100.00;99374.88;4276557;33;20441;-70
2022/10/05 09:07:52;;;;;;;6.28;3.35;;;;;;;16.12;100.00;99379.94;4281263;33;20037;-70
2022/10/05 09:10:43;;;;;;;11.70;4.80;;;;;;;15.97;100.00;99383.50;4280555;33;20398;-70
2022/10/05 09:13:22;;;;;;;12.40;3.50;;;;;;;15.94;100.00;99379.44;4291521;33;20045;-69
2022/10/05 09:16:13;;;;;;;10.32;3.62;;;;;;;16.33;100.00;99376.00;4295440;33;20052;-70
2022/10/05 09:18:55;;;;;;;11.90;3.47;;;;;;;16.22;100.00;99341.84;4294123;33;20059;-69
2022/10/05 09:21:41;;;;;;;6.85;4.03;;;;;;;16.22;100.00;99379.06;4293843;33;20102;-69
2022/10/05 09:24:11;;;;;;;6.43;3.08;;;;;;;16.12;100.00;99369.06;4288836;33;20082;-69
2022/10/05 09:26:41;;;;;;;6.72;3.50;;;;;;;16.06;100.00;99359.31;4291712;33;20456;-74
2022/10/05 09:29:26;;;;;;;8.68;3.12;;;;;;;16.37;100.00;99365.41;4295119;33;20064;-69
2022/10/05 09:32:08;;;;;;;4.47;3.08;;;;;;;15.97;100.00;99384.31;4280288;33;20048;-69
2022/10/05 09:34:40;;;;;;;13.57;3.40;;;;;;;15.94;100.00;99379.44;4265490;33;20766;-68
2022/10/05 09:37:19;;;;;;;10.52;3.90;;;;;;;15.91;100.00;99352.84;4278196;33;20144;-69
2022/10/05 09:40:23;;;;;;;12.65;3.65;;;;;;;16.51;100.00;99371.03;4280369;33;20029;-74
2022/10/05 09:43:15;;;;;;;6.82;3.42;;;;;;;16.59;100.00;99384.03;4280349;33;20370;-68
2022/10/05 09:46:00;;;;;;;12.88;3.53;;;;;;;16.32;100.00;99390.72;4270017;33;20046;-68
2022/10/05 09:48:29;;;;;;;10.15;4.00;;;;;;;16.43;100.00;99385.22;4264454;33;20038;-68
2022/10/05 09:51:25;;;;;;;8.43;3.55;;;;;;;16.60;100.00;99401.97;4264008;33;20037;-68
2022/10/05 09:54:05;;;;;;;8.27;4.10;;;;;;;16.60;100.00;99371.28;4242281;33;20093;-68
2022/10/05 09:56:50;;;;;;;8.13;3.75;;;;;;;16.38;100.00;99405.06;4221172;33;20050;-68
2022/10/05 09:59:44;;;;;;;6.35;3.80;;;;;;;17.05;100.00;99402.78;4236855;33;20058;-69
2022/10/05 10:02:13;;;;;;;13.23;4.00;;;;;;;16.39;100.00;99346.13;4236440;33;20475;-69
2022/10/05 10:05:04;;;;;;;7.43;3.62;;;;;;;16.82;100.00;99395.34;4239000;33;20064;-68
2022/10/05 10:08:03;;;;;;;5.40;3.80;;;;;;;16.78;100.00;99383.37;4236274;33;20432;-70
2022/10/05 10:10:42;;;;;;;6.55;3.17;;;;;;;16.49;100.00;99386.81;4236985;33;20199;-73
2022/10/05 10:13:31;;;;;;;6.32;3.37;;;;;;;16.31;100.00;99345.59;4233131;33;20495;-69
2022/10/05 10:16:11;;;;;;;7.10;3.85;;;;;;;16.40;100.00;99353.16;4221376;33;20031;-73
2022/10/05 10:18:37;;;;;;;8.77;3.72;;;;;;;16.79;100.00;99355.09;4223650;33;20043;-68
2022/10/05 10:21:32;;;;;;;17.23;3.70;;;;;;;17.17;100.00;99358.13;4237290;33;20043;-68
2022/10/05 10:24:03;;;;;;;9.05;3.30;;;;;;;17.42;100.00;99393.25;4220500;33;20042;-69
2022/10/05 10:26:55;;;;;;;6.93;2.83;;;;;;;17.51;100.00;99392.63;4223491;33;20480;-68
2022/10/05 10:29:55;;;;;;;10.50;3.15;;;;;;;16.84;100.00;99395.84;4262826;33;20037;-69
2022/10/05 10:32:43;;;;;;;4.28;2.87;;;;;;;17.24;100.00;99389.31;4250036;33;20059;-71
2022/10/05 10:35:29;;;;;;;9.02;3.20;;;;;;;17.41;100.00;99388.91;4287982;33;20079;-69
2022/10/05 10:38:13;;;;;;;15.30;3.40;;;;;;;17.34;100.00;99334.00;4267275;33;20042;-68
2022/10/05 10:41:13;;;;;;;9.65;3.35;;;;;;;18.21;100.00;99356.75;4273773;33;20047;-69
2022/10/05 10:44:11;;;;;;;8.63;3.17;;;;;;;18.23;100.00;99370.09;4277459;33;20044;-70
2022/10/05 10:46:58;;;;;;;4.10;3.08;;;;;;;18.29;100.00;99363.47;4281156;33;20092;-69
2022/10/05 10:49:43;;;;;;;16.85;4.50;;;;;;;17.08;100.00;99335.34;4277752;33;20041;-71
2022/10/05 10:52:21;;;;;;;9.35;3.62;;;;;;;17.72;100.00;99328.69;4280004;33;20034;-70
2022/10/05 10:55:25;;;;;;;6.62;3.00;;;;;;;18.10;100.00;99386.03;4284044;33;20059;-75
2022/10/05 10:58:16;;;;;;;8.27;3.42;;;;;;;17.42;100.00;99374.22;4294506;33;20029;-68
2022/10/05 11:00:59;;;;;;;12.18;3.10;;;;;;;17.30;100.00;99379.22;4300495;33;20103;-69
2022/10/05 11:03:50;;;;;;;7.78;3.20;;;;;;;17.88;100.00;99353.87;4298092;33;20427;-68
2022/10/05 11:06:47;;;;;;;4.57;3.45;;;;;;;17.99;100.00;99360.00;4295388;33;21081;-68
2022/10/05 11:09:51;;;;;;;9.23;2.92;;;;;;;17.83;100.00;99374.88;4290638;33;20098;-70
2022/10/05 11:12:48;;;;;;;5.30;2.75;;;;;;;17.76;100.00;99365.16;4282748;33;20435;-69
2022/10/05 11:15:35;;;;;;;3.45;2.45;;;;;;;18.28;100.00;99361.84;4309746;33;20095;-69
2022/10/05 11:18:27;;;;;;;10.02;3.03;;;;;;;18.46;100.00;99361.06;4287802;33;20044;-72
2022/10/05 11:21:02;;;;;;;9.70;2.70;;;;;;;18.32;100.00;99341.06;4294275;33;20122;-69
2022/10/05 11:23:44;;;;;;;13.60;2.90;;;;;;;18.15;100.00;99347.00;4290751;33;20048;-74
2022/10/05 11:26:28;;;;;;;6.03;2.78;;;;;;;18.54;100.00;99358.75;4292395;33;20390;-69
2022/10/05 11:29:11;;;;;;;12.50;2.95;;;;;;;18.63;100.00;99338.72;4295342;33;20053;-73
2022/10/05 11:32:15;;;;;;;7.50;2.75;;;;;;;18.51;100.00;99306.44;4288730;33;20045;-70
2022/10/05 11:34:54;;;;;;;6.53;2.35;;;;;;;18.55;100.00;99342.09;4296380;33;20836;-68
2022/10/05 11:38:05;;;;;;;5.37;2.30;;;;;;;18.05;100.00;99349.88;4294748;33;20438;-68
2022/10/05 11:40:43;;;;;;;5.55;2.22;;;;;;;17.75;100.00;99310.97;4297853;33;20029;-68
2022/10/05 11:43:12;;;;;;;7.43;2.85;;;;;;;18.34;100.00;99322.50;4309842;33;20378;-70
2022/10/05 11:46:04;;;;;;;4.80;2.30;;;;;;;17.90;100.00;99323.63;4309449;33;20048;-68
2022/10/05 11:48:49;;;;;;;3.22;2.47;;;;;;;17.52;100.00;99304.41;4309213;33;20094;-69
2022/10/05 11:51:27;;;;;;;9.30;2.92;;;;;;;18.08;100.00;99335.69;4304325;33;20057;-69
2022/10/05 11:54:06;;;;;;;5.55;2.90;;;;;;;18.11;100.00;99335.88;4292935;33;20109;-69
2022/10/05 11:56:57;;;;;;;10.77;2.75;;;;;;;18.64;100.00;99332.16;4290648;33;20195;-70
2022/10/05 12:00:00;;;;;;;4.70;2.47;;;;;;;18.35;100.00;99335.03;4291647;33;20412;-69
2022/10/05 12:02:39;;;;;;;4.40;2.97;;;;;;;18.51;100.00;99332.91;4271464;33;20412;-69
2022/10/05 12:05:36;;;;;;;13.95;3.12;;;;;;;18.44;100.00;99289.63;4308947;33;20482;-69
2022/10/05 12:08:37;;;;;;;17.98;2.90;;;;;;;18.24;100.00;99314.47;4303484;33;20546;-69
2022/10/05 12:11:41;;;;;;;5.97;2.58;;;;;;;18.78;100.00;99324.03;4287527;33;20073;-75
2022/10/05 12:14:25;;;;;;;2.97;2.47;;;;;;;19.41;100.00;99319.19;4295870;33;20041;-68
2022/10/05 12:16:58;;;;;;;9.57;2.33;;;;;;;18.32;100.00;99308.37;4294620;33;20096;-69
2022/10/05 12:19:44;;;;;;;8.70;2.35;;;;;;;19.38;100.00;99301.47;4296709;33;20040;-68
2022/10/05 12:22:17;;;;;;;4.93;1.60;;;;;;;18.74;100.00;99287.53;4293380;33;20120;-68
2022/10/05 12:25:13;;;;;;;7.72;3.40;;;;;;;18.81;100.00;99271.63;4284414;33;20616;-69
2022/10/05 12:27:45;;;;;;;6.75;2.65;;;;;;;19.19;100.00;99309.75;4292133;33;20059;-70
2022/10/05 12:30:28;;;;;;;4.15;2.40;;;;;;;20.00;100.00;99303.03;4294863;33;20080;-68
2022/10/05 12:33:07;;;;;;;10.10;2.50;;;;;;;19.34;100.00;99305.13;4295761;33;20461;-69
2022/10/05 12:35:47;;;;;;;4.40;2.05;;;;;;;19.44;100.00;99307.66;4289051;33;20084;-69